Arroyo, PR (00714)

9:02 AM AST on July 27, 2016 (GMT -0400)
tikolj | | Change Station

Elev 30 ft 17.97 °N, 66.06 °W | Updated 2 minutes ago

Scattered Clouds
Scattered Clouds
89.6 °F
Feels Like 110 °F
N
8.3
Wind Variable Wind from SSE

Today
High -- | Low -- °F
--% Chance of Precip.
Yesterday
High -- | Low -- °F
Precip. -- in
Pressure 30.02 in
Visibility 10.0 miles
Clouds Few 2300 ft
Scattered Clouds 3500 ft
Heat Index 110 °F
Dew Point 81 °F
Humidity 77%
Rainfall 0.00 in
Snow Depth Not available.
6:01 AM 7:00 PM
Last Quarter, 43% visible
METAR TJSJ 271256Z 08012KT 10SM FEW023 SCT035 30/26 A3002 RMK AO2 SLP166 HZ ALQDS T03000256
Pressure 30.02 in
Visibility 10.0 miles
Clouds Few 2300 ft
Scattered Clouds 3500 ft
Heat Index 110 °F
Dew Point 81 °F
Humidity 77%
Rainfall 0.00 in
Snow Depth Not available.
6:01 AM 7:00 PM
Last Quarter, 43% visible
METAR TJSJ 271256Z 08012KT 10SM FEW023 SCT035 30/26 A3002 RMK AO2 SLP166 HZ ALQDS T03000256

10-Day Weather Forecast

Almanac

Astronomy

Jul. 27, 2016 Rise Set
Actual Time
Civil Twilight
Nautical Twilight
Astronomical Twilight
Moon
Length of Visible Light
Length of Day
Tomorrow will be .
, % of the Moon is Illuminated

Today's Extremes

State Highs State Lows

Community

WunderPhotos

Upload Photos

1,927,842 photos uploaded!

WunderBlog® & News

Nearby

Air Quality

  Air Quality AQ Index Pollutant
Not available.

Snow Depth

Station Depth Elevation

Earthquake Activity

City Distance Mag. Time & Date
Minimum magnitude displayed is 2.5.

Coastal Water Temperatures

Place Temperature

Stations

Nearby Weather Stations

Station Location Temp. Windchill Dew Point Humidity Wind Precip. Elev Updated Type
                   

Watches & Warnings

There are currently no watches in effect.